Observation data for Muleshoe on 02/24/2021      Previous  Date  Next       Current Mesonet Observations  Soil Data  Daily Summary Page  Observations in Plain Language
KMUS 240600Z 24012KT 09/M10 A2989 RMK A01 T00921103  RH  024%=      5-min Rain = 0
KMUS 240605Z 24011KT 09/M10 A2989 RMK A01 T00891102  RH  025%=      5-min Rain = 0
KMUS 240610Z 24011KT 09/M10 A2989 RMK A01 T00861101  RH  025%=      5-min Rain = 0
KMUS 240615Z 24012KT 08/M10 A2989 RMK A01 T00841099  RH  026%=      5-min Rain = 0
KMUS 240620Z 24011KT 08/M10 A2989 RMK A01 T00821098  RH  027%=      5-min Rain = 0
KMUS 240625Z 25010KT 08/M10 A2989 RMK A01 T00791096  RH  028%=      5-min Rain = 0
KMUS 240630Z 26009KT 08/M10 A2989 RMK A01 T00761096  RH  028%=      5-min Rain = 0
KMUS 240635Z 26009KT 08/M10 A299 RMK A01 T00761096  RH  028%=      5-min Rain = 0
KMUS 240640Z 27008KT 07/M10 A2991 RMK A01 T00721095  RH  029%=      5-min Rain = 0
KMUS 240645Z 27007KT 06/M10 A2991 RMK A01 T00631095  RH  031%=      5-min Rain = 0
KMUS 240650Z 28009KT 05/M09 A2992 RMK A01 T00541093  RH  034%=      5-min Rain = 0
KMUS 240655Z 29009KT 05/M09 A2992 RMK A01 T00451091  RH  036%=      5-min Rain = 0
KMUS 240700Z 27009KT 04/M09 A2993 RMK A01 T00411089  RH  038%=      5-min Rain = 0
KMUS 240705Z 28010KT 04/M09 A2993 RMK A01 T00421087  RH  038%=      5-min Rain = 0
KMUS 240710Z 27009KT 04/M09 A2993 RMK A01 T00441087  RH  038%=      5-min Rain = 0
KMUS 240715Z 28009KT 05/M09 A2993 RMK A01 T00461088  RH  037%=      5-min Rain = 0
KMUS 240720Z 28009KT 05/M09 A2993 RMK A01 T00461088  RH  037%=      5-min Rain = 0
KMUS 240725Z 27010KT 05/M09 A2993 RMK A01 T00451088  RH  037%=      5-min Rain = 0
KMUS 240730Z 27010KT 04/M09 A2994 RMK A01 T00441087  RH  038%=      5-min Rain = 0
KMUS 240735Z 27011KT 05/M09 A2994 RMK A01 T00461087  RH  037%=      5-min Rain = 0
KMUS 240740Z 28009KT 05/M09 A2995 RMK A01 T00461086  RH  038%=      5-min Rain = 0
KMUS 240745Z 31011KT 05/M09 A2996 RMK A01 T00471085  RH  038%=      5-min Rain = 0
KMUS 240750Z 33013KT 05/M08 A2998 RMK A01 T00481084  RH  038%=      5-min Rain = 0
KMUS 240755Z 34011G17KT 06/M08 A2999 RMK A01 T00571079  RH  037%=      5-min Rain = 0
KMUS 240800Z 35014KT 08/M07 A2999 RMK A01 T00781068  RH  035%=      5-min Rain = 0
KMUS 240805Z 35012KT 09/M07 A2999 RMK A01 T00851066  RH  034%=      5-min Rain = 0
KMUS 240810Z 36012KT 08/M06 A30 RMK A01 T00841060  RH  035%=      5-min Rain = 0
KMUS 240815Z 00011G16KT 08/M06 A30 RMK A01 T00831057  RH  037%=      5-min Rain = 0
KMUS 240820Z 01012G17KT 08/M05 A30 RMK A01 T00811051  RH  039%=      5-min Rain = 0
KMUS 240825Z 01011KT 08/M05 A30 RMK A01 T00791048  RH  040%=      5-min Rain = 0
KMUS 240830Z 01010KT 08/M05 A30 RMK A01 T00751047  RH  042%=      5-min Rain = 0
KMUS 240835Z 01010KT 07/M05 A3001 RMK A01 T00741045  RH  043%=      5-min Rain = 0
KMUS 240840Z 01011KT 07/M04 A3001 RMK A01 T00721044  RH  044%=      5-min Rain = 0
KMUS 240845Z 02011KT 07/M04 A3001 RMK A01 T00691043  RH  045%=      5-min Rain = 0
KMUS 240850Z 01011G16KT 07/M04 A3002 RMK A01 T00671043  RH  046%=      5-min Rain = 0
KMUS 240855Z 01011KT 07/M04 A3002 RMK A01 T00651042  RH  046%=      5-min Rain = 0
KMUS 240900Z 01012KT 06/M04 A3002 RMK A01 T00631042  RH  047%=      5-min Rain = 0
KMUS 240905Z 01011G17KT 06/M04 A3002 RMK A01 T00621042  RH  048%=      5-min Rain = 0
KMUS 240910Z 02011KT 06/M04 A3003 RMK A01 T00611041  RH  048%=      5-min Rain = 0
KMUS 240915Z 02010KT 06/M04 A3003 RMK A01 T00591041  RH  049%=      5-min Rain = 0
KMUS 240920Z 02010KT 06/M04 A3003 RMK A01 T00581041  RH  049%=      5-min Rain = 0
KMUS 240925Z 02010G16KT 06/M04 A3003 RMK A01 T00561040  RH  050%=      5-min Rain = 0
KMUS 240930Z 02011KT 06/M04 A3003 RMK A01 T00551040  RH  051%=      5-min Rain = 0
KMUS 240935Z 02012G20KT 06/M04 A3003 RMK A01 T00551039  RH  051%=      5-min Rain = 0
KMUS 240940Z 02012KT 06/M04 A3004 RMK A01 T00551039  RH  051%=      5-min Rain = 0
KMUS 240945Z 03011G17KT 05/M04 A3004 RMK A01 T00541039  RH  051%=      5-min Rain = 0
KMUS 240950Z 02009G14KT 05/M04 A3004 RMK A01 T00521039  RH  052%=      5-min Rain = 0
KMUS 240955Z 01009KT 05/M04 A3005 RMK A01 T00501039  RH  053%=      5-min Rain = 0
KMUS 241000Z 00008KT 05/M04 A3005 RMK A01 T00471039  RH  054%=      5-min Rain = 0
KMUS 241005Z 01008KT 04/M04 A3006 RMK A01 T00441039  RH  055%=      5-min Rain = 0
KMUS 241010Z 01009KT 04/M04 A3006 RMK A01 T00431038  RH  056%=      5-min Rain = 0
KMUS 241015Z 01010KT 04/M04 A3006 RMK A01 T00431038  RH  056%=      5-min Rain = 0
KMUS 241020Z 00010KT 04/M04 A3006 RMK A01 T00431038  RH  056%=      5-min Rain = 0
KMUS 241025Z 00010G16KT 04/M04 A3007 RMK A01 T00411039  RH  056%=      5-min Rain = 0
KMUS 241030Z 01012KT 04/M04 A3007 RMK A01 T00421040  RH  055%=      5-min Rain = 0
KMUS 241035Z 01010G15KT 04/M04 A3007 RMK A01 T00421041  RH  055%=      5-min Rain = 0
KMUS 241040Z 02011KT 04/M04 A3007 RMK A01 T00421042  RH  055%=      5-min Rain = 0
KMUS 241045Z 02012KT 04/M04 A3007 RMK A01 T00421044  RH  054%=      5-min Rain = 0
KMUS 241050Z 01010KT 04/M04 A3007 RMK A01 T00401044  RH  054%=      5-min Rain = 0
KMUS 241055Z 01011KT 04/M04 A3007 RMK A01 T00381043  RH  056%=      5-min Rain = 0
KMUS 241100Z 01011KT 04/M04 A3007 RMK A01 T00371041  RH  057%=      5-min Rain = 0
KMUS 241105Z 01010KT 03/M04 A3007 RMK A01 T00341040  RH  058%=      5-min Rain = 0
KMUS 241110Z 01010KT 03/M04 A3008 RMK A01 T00341040  RH  059%=      5-min Rain = 0
KMUS 241115Z 36008G14KT 03/M04 A3008 RMK A01 T00321040  RH  059%=      5-min Rain = 0
KMUS 241120Z 36007KT 03/M04 A3009 RMK A01 T00301041  RH  060%=      5-min Rain = 0
KMUS 241125Z 00010KT 03/M04 A3009 RMK A01 T00311041  RH  060%=      5-min Rain = 0
KMUS 241130Z 01009KT 03/M04 A3009 RMK A01 T00341041  RH  058%=      5-min Rain = 0
KMUS 241135Z 01009KT 03/M04 A301 RMK A01 T00331042  RH  058%=      5-min Rain = 0
KMUS 241140Z 00009KT 03/M04 A301 RMK A01 T00311042  RH  059%=      5-min Rain = 0
KMUS 241145Z 00009KT 03/M04 A301 RMK A01 T00291043  RH  060%=      5-min Rain = 0
KMUS 241150Z 36007KT 03/M04 A3011 RMK A01 T00261044  RH  060%=      5-min Rain = 0
KMUS 241155Z 01008KT 02/M04 A3011 RMK A01 T00231044  RH  061%=      5-min Rain = 0
KMUS 241200Z 01009KT 02/M04 A3011 RMK A01 T00241044  RH  061%=      5-min Rain = 0
KMUS 241205Z 01009KT 02/M04 A3011 RMK A01 T00241044  RH  061%=      5-min Rain = 0
KMUS 241210Z 01008KT 02/M04 A3011 RMK A01 T00241044  RH  061%=      5-min Rain = 0
KMUS 241215Z 01009KT 02/M04 A3011 RMK A01 T00231044  RH  062%=      5-min Rain = 0
KMUS 241220Z 00010KT 02/M04 A3011 RMK A01 T00231043  RH  062%=      5-min Rain = 0
KMUS 241225Z 01009KT 02/M04 A3011 RMK A01 T00231044  RH  061%=      5-min Rain = 0
KMUS 241230Z 35008KT 02/M04 A3012 RMK A01 T00211044  RH  062%=      5-min Rain = 0
KMUS 241235Z 35006KT 02/M05 A3012 RMK A01 T00171045  RH  063%=      5-min Rain = 0
KMUS 241240Z 35008KT 02/M05 A3012 RMK A01 T00161045  RH  064%=      5-min Rain = 0
KMUS 241245Z 34008KT 02/M05 A3013 RMK A01 T00151045  RH  065%=      5-min Rain = 0
KMUS 241250Z 34008KT 01/M05 A3013 RMK A01 T00141045  RH  065%=      5-min Rain = 0
KMUS 241255Z 34008KT 01/M05 A3013 RMK A01 T00131045  RH  065%=      5-min Rain = 0
KMUS 241300Z 35008KT 01/M05 A3013 RMK A01 T00121045  RH  066%=      5-min Rain = 0
KMUS 241305Z 35007KT 01/M05 A3013 RMK A01 T00111046  RH  066%=      5-min Rain = 0
KMUS 241310Z 35007KT 01/M05 A3013 RMK A01 T00091047  RH  066%=      5-min Rain = 0
KMUS 241315Z 34006KT 01/M05 A3014 RMK A01 T00061048  RH  067%=      5-min Rain = 0
KMUS 241320Z 35007KT 00/M05 A3014 RMK A01 T00041049  RH  068%=      5-min Rain = 0
KMUS 241325Z 01008KT 01/M05 A3014 RMK A01 T00051048  RH  068%=      5-min Rain = 0
KMUS 241330Z 00010KT 01/M05 A3014 RMK A01 T00081048  RH  066%=      5-min Rain = 0
KMUS 241335Z 35007KT 01/M05 A3014 RMK A01 T00071048  RH  067%=      5-min Rain = 0
KMUS 241340Z 35009KT 01/M05 A3015 RMK A01 T00051048  RH  068%=      5-min Rain = 0
KMUS 241345Z 36009KT 01/M05 A3016 RMK A01 T00071048  RH  067%=      5-min Rain = 0
KMUS 241350Z 35009KT 01/M05 A3016 RMK A01 T00071049  RH  066%=      5-min Rain = 0
KMUS 241355Z 35008KT 01/M05 A3017 RMK A01 T00071049  RH  066%=      5-min Rain = 0
KMUS 241400Z 36009KT 01/M05 A3017 RMK A01 T00081049  RH  066%=      5-min Rain = 0
KMUS 241405Z 36009KT 01/M05 A3017 RMK A01 T00101049  RH  065%=      5-min Rain = 0
KMUS 241410Z 36009KT 01/M05 A3018 RMK A01 T00111049  RH  064%=      5-min Rain = 0
KMUS 241415Z 35009KT 01/M05 A3018 RMK A01 T00141049  RH  063%=      5-min Rain = 0
KMUS 241420Z 35010KT 02/M05 A3018 RMK A01 T00171050  RH  061%=      5-min Rain = 0
KMUS 241425Z 34009KT 02/M05 A3019 RMK A01 T00201051  RH  059%=      5-min Rain = 0
KMUS 241430Z 00013G18KT 02/M05 A3019 RMK A01 T00241054  RH  057%=      5-min Rain = 0
KMUS 241435Z 00012G17KT 03/M06 A3019 RMK A01 T00261055  RH  056%=      5-min Rain = 0
KMUS 241440Z 01013G18KT 03/M06 A3019 RMK A01 T00281055  RH  055%=      5-min Rain = 0
KMUS 241445Z 01016G21KT 03/M06 A3019 RMK A01 T00291057  RH  053%=      5-min Rain = 0
KMUS 241450Z 01015G23KT 03/M06 A302 RMK A01 T00301057  RH  053%=      5-min Rain = 0
KMUS 241455Z 01014G20KT 03/M06 A302 RMK A01 T00331057  RH  052%=      5-min Rain = 0
KMUS 241500Z 01015G20KT 04/M06 A302 RMK A01 T00351058  RH  051%=      5-min Rain = 0
KMUS 241505Z 00015G22KT 04/M06 A302 RMK A01 T00371058  RH  050%=      5-min Rain = 0
KMUS 241510Z 01017G23KT 04/M06 A302 RMK A01 T00371059  RH  050%=      5-min Rain = 0
KMUS 241515Z 02017G23KT 04/M06 A302 RMK A01 T00371059  RH  049%=      5-min Rain = 0
KMUS 241520Z 02015G21KT 04/M06 A302 RMK A01 T00391058  RH  049%=      5-min Rain = 0
KMUS 241525Z 02016G21KT 04/M06 A3021 RMK A01 T00421059  RH  048%=      5-min Rain = 0
KMUS 241530Z 02015G20KT 05/M06 A3021 RMK A01 T00451060  RH  047%=      5-min Rain = 0
KMUS 241535Z 01017G23KT 05/M06 A3021 RMK A01 T00461061  RH  046%=      5-min Rain = 0
KMUS 241540Z 02016G21KT 05/M06 A3021 RMK A01 T00461061  RH  046%=      5-min Rain = 0
KMUS 241545Z 02016KT 05/M06 A3021 RMK A01 T00481060  RH  045%=      5-min Rain = 0
KMUS 241550Z 02015G20KT 05/M06 A3021 RMK A01 T00491060  RH  045%=      5-min Rain = 0
KMUS 241555Z 02016KT 05/M06 A3022 RMK A01 T00511060  RH  045%=      5-min Rain = 0
KMUS 241600Z 03012G17KT 05/M06 A3022 RMK A01 T00541058  RH  044%=      5-min Rain = 0
KMUS 241605Z 02012KT 06/M06 A3021 RMK A01 T00581058  RH  043%=      5-min Rain = 0
KMUS 241610Z 02014G19KT 06/M06 A3022 RMK A01 T00581060  RH  042%=      5-min Rain = 0
KMUS 241615Z 02013KT 06/M06 A3022 RMK A01 T00601060  RH  042%=      5-min Rain = 0
KMUS 241620Z 01014KT 06/M06 A3021 RMK A01 T00611060  RH  042%=      5-min Rain = 0
KMUS 241625Z 02015KT 06/M06 A3021 RMK A01 T00631060  RH  041%=      5-min Rain = 0
KMUS 241630Z 02013KT 06/M06 A3021 RMK A01 T00631060  RH  041%=      5-min Rain = 0
KMUS 241635Z 03012KT 07/M06 A3021 RMK A01 T00651059  RH  041%=      5-min Rain = 0
KMUS 241640Z 04014G19KT 07/M06 A3021 RMK A01 T00671062  RH  039%=      5-min Rain = 0
KMUS 241645Z 03014KT 07/M06 A302 RMK A01 T00681060  RH  040%=      5-min Rain = 0
KMUS 241650Z 03012KT 07/M06 A302 RMK A01 T00711060  RH  039%=      5-min Rain = 0
KMUS 241655Z 03010KT 08/M06 A3021 RMK A01 T00761060  RH  038%=      5-min Rain = 0
KMUS 241700Z 02011KT 08/M06 A3021 RMK A01 T00791061  RH  036%=      5-min Rain = 0
KMUS 241705Z 04011G16KT 08/M06 A3021 RMK A01 T00781063  RH  036%=      5-min Rain = 0
KMUS 241710Z 04012KT 08/M07 A3021 RMK A01 T00791066  RH  035%=      5-min Rain = 0
KMUS 241715Z 04011G16KT 08/M07 A3021 RMK A01 T00801068  RH  034%=      5-min Rain = 0
KMUS 241720Z 03011G16KT 08/M07 A3021 RMK A01 T00841067  RH  034%=      5-min Rain = 0
KMUS 241725Z 03011G17KT 09/M07 A3021 RMK A01 T00871068  RH  033%=      5-min Rain = 0
KMUS 241730Z 05012G17KT 09/M07 A3021 RMK A01 T00901073  RH  031%=      5-min Rain = 0
KMUS 241735Z 05012G17KT 09/M07 A3021 RMK A01 T00891074  RH  031%=      5-min Rain = 0
KMUS 241740Z 05011G16KT 09/M08 A3021 RMK A01 T00921076  RH  030%=      5-min Rain = 0
KMUS 241745Z 06013KT 09/M08 A3021 RMK A01 T00931077  RH  029%=      5-min Rain = 0
KMUS 241750Z 06012G17KT 09/M08 A302 RMK A01 T00941076  RH  029%=      5-min Rain = 0
KMUS 241755Z 06012G18KT 09/M08 A302 RMK A01 T00941077  RH  029%=      5-min Rain = 0
KMUS 241800Z 06012G17KT 10/M08 A302 RMK A01 T00981080  RH  028%=      5-min Rain = 0
KMUS 241805Z 05012G18KT 10/M08 A302 RMK A01 T00981082  RH  027%=      5-min Rain = 0
KMUS 241810Z 06010KT 10/M08 A302 RMK A01 T00981083  RH  027%=      5-min Rain = 0
KMUS 241815Z 06012G19KT 10/M08 A302 RMK A01 T01021083  RH  026%=      5-min Rain = 0
KMUS 241820Z 06011KT 10/M08 A3019 RMK A01 T01021082  RH  027%=      5-min Rain = 0
KMUS 241825Z 06011G16KT 10/M08 A3019 RMK A01 T01041082  RH  026%=      5-min Rain = 0
KMUS 241830Z 05012G17KT 10/M08 A3019 RMK A01 T01031084  RH  026%=      5-min Rain = 0
KMUS 241835Z 08011G17KT 10/M08 A3019 RMK A01 T01041083  RH  026%=      5-min Rain = 0
KMUS 241840Z 05010KT 11/M08 A3019 RMK A01 T01061082  RH  026%=      5-min Rain = 0
KMUS 241845Z 06010G15KT 11/M08 A3019 RMK A01 T01081084  RH  025%=      5-min Rain = 0
KMUS 241850Z 08009G15KT 11/M09 A3019 RMK A01 T01121087  RH  024%=      5-min Rain = 0
KMUS 241855Z 07010KT 11/M09 A3019 RMK A01 T01101085  RH  024%=      5-min Rain = 0
KMUS 241900Z 09008G14KT 11/M09 A3019 RMK A01 T01101086  RH  024%=      5-min Rain = 0
KMUS 241905Z 07009KT 11/M09 A3018 RMK A01 T01111085  RH  024%=      5-min Rain = 0
KMUS 241910Z 08008KT 12/M09 A3018 RMK A01 T01151085  RH  024%=      5-min Rain = 0
KMUS 241915Z 07009G15KT 11/M09 A3018 RMK A01 T01131085  RH  024%=      5-min Rain = 0
KMUS 241920Z 09009G14KT 12/M09 A3017 RMK A01 T01151086  RH  024%=      5-min Rain = 0
KMUS 241925Z 08010G17KT 12/M09 A3017 RMK A01 T01161086  RH  023%=      5-min Rain = 0
KMUS 241930Z 09010G16KT 12/M09 A3016 RMK A01 T01161085  RH  024%=      5-min Rain = 0
KMUS 241935Z 09011KT 12/M08 A3016 RMK A01 T01201083  RH  023%=      5-min Rain = 0
KMUS 241940Z 08009G14KT 12/M08 A3015 RMK A01 T01201082  RH  024%=      5-min Rain = 0
KMUS 241945Z 09011KT 12/M08 A3015 RMK A01 T01221083  RH  023%=      5-min Rain = 0
KMUS 241950Z 09008G13KT 12/M08 A3014 RMK A01 T01181083  RH  024%=      5-min Rain = 0
KMUS 241955Z 06008G13KT 12/M08 A3014 RMK A01 T01201083  RH  023%=      5-min Rain = 0
KMUS 242000Z 08010G17KT 12/M08 A3014 RMK A01 T01241083  RH  023%=      5-min Rain = 0
KMUS 242005Z 08010G15KT 12/M09 A3013 RMK A01 T01231085  RH  023%=      5-min Rain = 0
KMUS 242010Z 08010G15KT 12/M08 A3013 RMK A01 T01231083  RH  023%=      5-min Rain = 0
KMUS 242015Z 09009KT 13/M08 A3013 RMK A01 T01281081  RH  022%=      5-min Rain = 0
KMUS 242020Z 09009G15KT 13/M08 A3013 RMK A01 T01291083  RH  022%=      5-min Rain = 0
KMUS 242025Z 09009G14KT 13/M08 A3013 RMK A01 T01271084  RH  022%=      5-min Rain = 0
KMUS 242030Z 08009KT 13/M08 A3012 RMK A01 T01271084  RH  022%=      5-min Rain = 0
KMUS 242035Z 12009G14KT 13/M08 A3012 RMK A01 T01301083  RH  022%=      5-min Rain = 0
KMUS 242040Z 09010KT 13/M08 A3012 RMK A01 T01321083  RH  021%=      5-min Rain = 0
KMUS 242045Z 10010G15KT 13/M08 A3012 RMK A01 T01301083  RH  022%=      5-min Rain = 0
KMUS 242050Z 11009G16KT 13/M08 A3011 RMK A01 T01291082  RH  022%=      5-min Rain = 0
KMUS 242055Z 08009KT 13/M08 A3011 RMK A01 T01311082  RH  022%=      5-min Rain = 0
KMUS 242100Z 08011G17KT 13/M08 A3011 RMK A01 T01311083  RH  022%=      5-min Rain = 0
KMUS 242105Z 09010KT 13/M08 A3011 RMK A01 T01321082  RH  022%=      5-min Rain = 0
KMUS 242110Z 10012KT 14/M08 A301 RMK A01 T01371081  RH  021%=      5-min Rain = 0
KMUS 242115Z 11009KT 14/M08 A301 RMK A01 T01361080  RH  021%=      5-min Rain = 0
KMUS 242120Z 11009G16KT 14/M08 A301 RMK A01 T01361080  RH  021%=      5-min Rain = 0
KMUS 242125Z 10010KT 14/M08 A301 RMK A01 T01361080  RH  021%=      5-min Rain = 0
KMUS 242130Z 10007G12KT 14/M08 A301 RMK A01 T01351081  RH  021%=      5-min Rain = 0
KMUS 242135Z 12011KT 14/M08 A301 RMK A01 T01371079  RH  022%=      5-min Rain = 0
KMUS 242140Z 11009KT 14/M08 A301 RMK A01 T01371079  RH  021%=      5-min Rain = 0
KMUS 242145Z 12010G15KT 14/M08 A3009 RMK A01 T01371078  RH  022%=      5-min Rain = 0
KMUS 242150Z 12009G15KT 14/M08 A3009 RMK A01 T01371077  RH  022%=      5-min Rain = 0
KMUS 242155Z 11007G14KT 14/M08 A301 RMK A01 T01371076  RH  022%=      5-min Rain = 0
KMUS 242200Z 13010G15KT 14/M08 A301 RMK A01 T01371076  RH  022%=      5-min Rain = 0
KMUS 242205Z 10008KT 14/M07 A301 RMK A01 T01381074  RH  022%=      5-min Rain = 0
KMUS 242210Z 10010G18KT 14/M07 A301 RMK A01 T01391073  RH  022%=      5-min Rain = 0
KMUS 242215Z 10011KT 14/M07 A301 RMK A01 T01371072  RH  023%=      5-min Rain = 0
KMUS 242220Z 13007KT 14/M07 A301 RMK A01 T01381072  RH  023%=      5-min Rain = 0
KMUS 242225Z 10008G14KT 14/M07 A301 RMK A01 T01371070  RH  023%=      5-min Rain = 0
KMUS 242230Z 10009G16KT 14/M07 A301 RMK A01 T01361069  RH  024%=      5-min Rain = 0
KMUS 242235Z 10011KT 14/M07 A301 RMK A01 T01371067  RH  024%=      5-min Rain = 0
KMUS 242240Z 11010KT 14/M07 A301 RMK A01 T01381067  RH  024%=      5-min Rain = 0
KMUS 242245Z 13011KT 14/M07 A3009 RMK A01 T01391066  RH  023%=      5-min Rain = 0
KMUS 242250Z 12007KT 14/M07 A3009 RMK A01 T01391067  RH  023%=      5-min Rain = 0
KMUS 242255Z 11009G16KT 14/M07 A3009 RMK A01 T01391065  RH  024%=      5-min Rain = 0
KMUS 242300Z 10008G13KT 14/M07 A3009 RMK A01 T01381065  RH  024%=      5-min Rain = 0
KMUS 242305Z 10010KT 14/M06 A3009 RMK A01 T01371064  RH  024%=      5-min Rain = 0
KMUS 242310Z 10011KT 14/M06 A3009 RMK A01 T01381064  RH  024%=      5-min Rain = 0
KMUS 242315Z 10010KT 14/M06 A3009 RMK A01 T01371064  RH  024%=      5-min Rain = 0
KMUS 242320Z 11009KT 14/M06 A3009 RMK A01 T01361064  RH  024%=      5-min Rain = 0
KMUS 242325Z 10008KT 14/M06 A3009 RMK A01 T01361063  RH  025%=      5-min Rain = 0
KMUS 242330Z 13010G15KT 14/M06 A3009 RMK A01 T01381062  RH  024%=      5-min Rain = 0
KMUS 242335Z 12008G13KT 14/M06 A3009 RMK A01 T01371062  RH  024%=      5-min Rain = 0
KMUS 242340Z 11009G14KT 14/M06 A3009 RMK A01 T01361061  RH  025%=      5-min Rain = 0
KMUS 242345Z 11009KT 14/M06 A3009 RMK A01 T01361062  RH  025%=      5-min Rain = 0
KMUS 242350Z 11010KT 13/M06 A3009 RMK A01 T01341061  RH  025%=      5-min Rain = 0
KMUS 242355Z 11010KT 13/M06 A3009 RMK A01 T01331062  RH  025%=      5-min Rain = 0
KMUS 250000Z 10009KT 13/M06 A3009 RMK A01 T01321060  RH  026%=      5-min Rain = 0
KMUS 250005Z 10009KT 13/M06 A3009 RMK A01 T01311061  RH  026%=      5-min Rain = 0
KMUS 250010Z 12009G15KT 13/M06 A3009 RMK A01 T01301061  RH  026%=      5-min Rain = 0
KMUS 250015Z 13010KT 13/M06 A301 RMK A01 T01301062  RH  026%=      5-min Rain = 0
KMUS 250020Z 13009KT 13/M06 A301 RMK A01 T01281062  RH  026%=      5-min Rain = 0
KMUS 250025Z 13008KT 13/M06 A301 RMK A01 T01251061  RH  027%=      5-min Rain = 0
KMUS 250030Z 12008KT 12/M06 A301 RMK A01 T01221061  RH  027%=      5-min Rain = 0
KMUS 250035Z 11009KT 12/M06 A301 RMK A01 T01181062  RH  028%=      5-min Rain = 0
KMUS 250040Z 11009KT 11/M06 A301 RMK A01 T01131063  RH  029%=      5-min Rain = 0
KMUS 250045Z 11009KT 11/M06 A3011 RMK A01 T01091064  RH  029%=      5-min Rain = 0
KMUS 250050Z 11008KT 11/M06 A3011 RMK A01 T01051063  RH  030%=      5-min Rain = 0
KMUS 250055Z 10008KT 10/M06 A3011 RMK A01 T00971063  RH  032%=      5-min Rain = 0
KMUS 250100Z 10007KT 09/M06 A3011 RMK A01 T00901062  RH  033%=      5-min Rain = 0
KMUS 250105Z 10007KT 08/M06 A3012 RMK A01 T00831061  RH  036%=      5-min Rain = 0
KMUS 250110Z 10006KT 08/M06 A3012 RMK A01 T00751060  RH  038%=      5-min Rain = 0
KMUS 250115Z 09006KT 07/M06 A3012 RMK A01 T00671060  RH  040%=      5-min Rain = 0
KMUS 250120Z 09006KT 06/M06 A3012 RMK A01 T00601062  RH  041%=      5-min Rain = 0
KMUS 250125Z 08007KT 06/M06 A3012 RMK A01 T00561061  RH  043%=      5-min Rain = 0
KMUS 250130Z 09007KT 05/M06 A3012 RMK A01 T00531060  RH  044%=      5-min Rain = 0
KMUS 250135Z 09007KT 05/M06 A3012 RMK A01 T00511057  RH  046%=      5-min Rain = 0
KMUS 250140Z 09007KT 05/M06 A3013 RMK A01 T00491057  RH  046%=      5-min Rain = 0
KMUS 250145Z 09007KT 05/M06 A3013 RMK A01 T00451056  RH  048%=      5-min Rain = 0
KMUS 250150Z 10007KT 05/M06 A3013 RMK A01 T00451056  RH  048%=      5-min Rain = 0
KMUS 250155Z 09006KT 04/M06 A3013 RMK A01 T00411056  RH  049%=      5-min Rain = 0
KMUS 250200Z 09007KT 04/M06 A3013 RMK A01 T00361057  RH  051%=      5-min Rain = 0
KMUS 250205Z 10008KT 03/M06 A3013 RMK A01 T00331056  RH  052%=      5-min Rain = 0
KMUS 250210Z 10008KT 03/M06 A3013 RMK A01 T00331055  RH  052%=      5-min Rain = 0
KMUS 250215Z 10008KT 03/M05 A3013 RMK A01 T00331054  RH  053%=      5-min Rain = 0
KMUS 250220Z 09008KT 04/M05 A3013 RMK A01 T00361054  RH  052%=      5-min Rain = 0
KMUS 250225Z 10008KT 04/M05 A3013 RMK A01 T00371054  RH  052%=      5-min Rain = 0
KMUS 250230Z 10008KT 04/M05 A3013 RMK A01 T00401052  RH  051%=      5-min Rain = 0
KMUS 250235Z 10008KT 04/M05 A3013 RMK A01 T00441051  RH  050%=      5-min Rain = 0
KMUS 250240Z 10008KT 05/M05 A3013 RMK A01 T00461052  RH  049%=      5-min Rain = 0
KMUS 250245Z 09008KT 05/M05 A3013 RMK A01 T00461053  RH  049%=      5-min Rain = 0
KMUS 250250Z 09008KT 05/M05 A3014 RMK A01 T00451054  RH  049%=      5-min Rain = 0
KMUS 250255Z 09008KT 04/M06 A3014 RMK A01 T00431055  RH  049%=      5-min Rain = 0
KMUS 250300Z 09009KT 04/M06 A3014 RMK A01 T00411056  RH  049%=      5-min Rain = 0
KMUS 250305Z 09009KT 04/M06 A3014 RMK A01 T00421057  RH  049%=      5-min Rain = 0
KMUS 250310Z 10010KT 05/M06 A3014 RMK A01 T00451058  RH  047%=      5-min Rain = 0
KMUS 250315Z 10011KT 05/M06 A3014 RMK A01 T00521061  RH  044%=      5-min Rain = 0
KMUS 250320Z 10011KT 06/M06 A3015 RMK A01 T00551062  RH  043%=      5-min Rain = 0
KMUS 250325Z 09010KT 06/M06 A3015 RMK A01 T00551062  RH  043%=      5-min Rain = 0
KMUS 250330Z 09010KT 05/M06 A3015 RMK A01 T00541063  RH  043%=      5-min Rain = 0
KMUS 250335Z 09010KT 05/M06 A3015 RMK A01 T00531063  RH  043%=      5-min Rain = 0
KMUS 250340Z 10011KT 05/M06 A3015 RMK A01 T00531063  RH  043%=      5-min Rain = 0
KMUS 250345Z 10011KT 05/M06 A3015 RMK A01 T00531063  RH  043%=      5-min Rain = 0
KMUS 250350Z 10012KT 05/M06 A3015 RMK A01 T00531063  RH  043%=      5-min Rain = 0
KMUS 250355Z 10012KT 05/M06 A3015 RMK A01 T00531063  RH  043%=      5-min Rain = 0
KMUS 250400Z 10012KT 05/M06 A3015 RMK A01 T00521063  RH  043%=      5-min Rain = 0
KMUS 250405Z 10012KT 05/M06 A3015 RMK A01 T00521064  RH  043%=      5-min Rain = 0
KMUS 250410Z 10012KT 05/M06 A3015 RMK A01 T00521064  RH  043%=      5-min Rain = 0
KMUS 250415Z 10013KT 05/M07 A3015 RMK A01 T00521065  RH  043%=      5-min Rain = 0
KMUS 250420Z 10011KT 05/M07 A3015 RMK A01 T00511066  RH  043%=      5-min Rain = 0
KMUS 250425Z 10012KT 05/M07 A3015 RMK A01 T00501066  RH  043%=      5-min Rain = 0
KMUS 250430Z 10011KT 05/M07 A3016 RMK A01 T00491067  RH  043%=      5-min Rain = 0
KMUS 250435Z 10012KT 05/M07 A3016 RMK A01 T00491068  RH  042%=      5-min Rain = 0
KMUS 250440Z 10012KT 05/M07 A3015 RMK A01 T00501069  RH  042%=      5-min Rain = 0
KMUS 250445Z 10013KT 05/M07 A3015 RMK A01 T00511069  RH  042%=      5-min Rain = 0
KMUS 250450Z 10013KT 05/M07 A3015 RMK A01 T00501069  RH  042%=      5-min Rain = 0
KMUS 250455Z 10012KT 05/M07 A3016 RMK A01 T00491069  RH  042%=      5-min Rain = 0
KMUS 250500Z 10011KT 05/M07 A3016 RMK A01 T00481068  RH  043%=      5-min Rain = 0
KMUS 250505Z 10012KT 05/M07 A3016 RMK A01 T00481069  RH  043%=      5-min Rain = 0
KMUS 250510Z 10011KT 05/M07 A3016 RMK A01 T00461069  RH  043%=      5-min Rain = 0
KMUS 250515Z 11011KT 04/M07 A3016 RMK A01 T00441069  RH  044%=      5-min Rain = 0
KMUS 250520Z 11011KT 04/M07 A3016 RMK A01 T00431068  RH  044%=      5-min Rain = 0
KMUS 250525Z 11012KT 04/M07 A3016 RMK A01 T00421068  RH  044%=      5-min Rain = 0
KMUS 250530Z 11012KT 04/M07 A3017 RMK A01 T00421068  RH  045%=      5-min Rain = 0
KMUS 250535Z 10011KT 04/M07 A3017 RMK A01 T00411068  RH  045%=      5-min Rain = 0
KMUS 250540Z 10012KT 04/M07 A3017 RMK A01 T00401068  RH  045%=      5-min Rain = 0
KMUS 250545Z 10012KT 04/M07 A3017 RMK A01 T00401068  RH  045%=      5-min Rain = 0
KMUS 250550Z 10011KT 04/M07 A3017 RMK A01 T00391068  RH  045%=      5-min Rain = 0
KMUS 250555Z 10011KT 04/M07 A3017 RMK A01 T00381068  RH  046%=      5-min Rain = 0

Page generated in 0.0092 seconds.